sensor_id;sensor_type;location;lat;lon;timestamp;P1;durP1;ratioP1;P2;durP2;ratioP2
30864;SDS011;17574;49.418;11.038;2022-10-17T07:28:05;13.00;;;3.50;;
30864;SDS011;17574;49.418;11.038;2022-10-17T07:30:32;13.33;;;3.80;;
30864;SDS011;17574;49.418;11.038;2022-10-17T07:32:58;10.07;;;3.50;;
30864;SDS011;17574;49.418;11.038;2022-10-17T07:35:25;19.17;;;3.90;;
30864;SDS011;17574;49.418;11.038;2022-10-17T07:37:51;23.73;;;3.50;;
30864;SDS011;17574;49.418;11.038;2022-10-17T07:40:18;13.37;;;3.67;;
30864;SDS011;17574;49.418;11.038;2022-10-17T07:42:45;18.53;;;5.00;;
30864;SDS011;17574;49.418;11.038;2022-10-17T07:45:12;14.40;;;4.20;;
30864;SDS011;17574;49.418;11.038;2022-10-17T07:47:38;12.77;;;3.43;;
30864;SDS011;17574;49.418;11.038;2022-10-17T07:50:05;13.87;;;3.50;;
30864;SDS011;17574;49.418;11.038;2022-10-17T07:52:33;26.67;;;3.77;;
30864;SDS011;17574;49.418;11.038;2022-10-17T07:55:00;14.40;;;3.50;;
30864;SDS011;17574;49.418;11.038;2022-10-17T07:57:26;22.93;;;3.30;;
30864;SDS011;17574;49.418;11.038;2022-10-17T07:59:53;9.30;;;3.10;;
30864;SDS011;17574;49.418;11.038;2022-10-17T08:02:21;11.23;;;4.00;;
30864;SDS011;17574;49.418;11.038;2022-10-17T08:04:52;11.80;;;4.00;;
30864;SDS011;17574;49.418;11.038;2022-10-17T08:07:19;20.77;;;3.23;;
30864;SDS011;17574;49.418;11.038;2022-10-17T08:09:54;15.93;;;3.63;;
30864;SDS011;17574;49.418;11.038;2022-10-17T08:12:21;9.57;;;3.23;;
30864;SDS011;17574;49.418;11.038;2022-10-17T08:14:47;7.03;;;2.90;;
30864;SDS011;17574;49.418;11.038;2022-10-17T08:17:14;14.17;;;2.97;;
30864;SDS011;17574;49.418;11.038;2022-10-17T08:19:41;7.87;;;3.20;;
30864;SDS011;17574;49.418;11.038;2022-10-17T08:22:08;8.80;;;3.07;;
30864;SDS011;17574;49.418;11.038;2022-10-17T08:24:34;21.07;;;3.30;;
30864;SDS011;17574;49.418;11.038;2022-10-17T08:27:01;9.77;;;2.80;;
30864;SDS011;17574;49.418;11.038;2022-10-17T08:29:29;7.73;;;2.57;;
30864;SDS011;17574;49.418;11.038;2022-10-17T08:31:57;6.77;;;2.30;;
30864;SDS011;17574;49.418;11.038;2022-10-17T08:34:27;8.20;;;2.70;;
30864;SDS011;17574;49.418;11.038;2022-10-17T08:36:53;9.60;;;2.90;;
30864;SDS011;17574;49.418;11.038;2022-10-17T08:39:20;8.40;;;2.77;;
30864;SDS011;17574;49.418;11.038;2022-10-17T08:41:57;7.60;;;2.43;;
30864;SDS011;17574;49.418;11.038;2022-10-17T08:44:52;7.20;;;2.10;;
30864;SDS011;17574;49.418;11.038;2022-10-17T08:47:42;7.97;;;2.00;;
30864;SDS011;17574;49.418;11.038;2022-10-17T08:50:31;8.33;;;2.23;;
30864;SDS011;17574;49.418;11.038;2022-10-17T08:53:13;7.13;;;2.00;;
30864;SDS011;17574;49.418;11.038;2022-10-17T08:55:51;8.73;;;2.90;;
30864;SDS011;17574;49.418;11.038;2022-10-17T08:58:20;6.03;;;2.20;;
30864;SDS011;17574;49.418;11.038;2022-10-17T09:03:59;10.43;;;2.07;;
30864;SDS011;17574;49.418;11.038;2022-10-17T09:09:39;10.17;;;2.00;;
30864;SDS011;17574;49.418;11.038;2022-10-17T09:12:17;13.10;;;2.30;;
30864;SDS011;17574;49.418;11.038;2022-10-17T09:14:53;8.30;;;2.07;;
30864;SDS011;17574;49.418;11.038;2022-10-17T09:17:51;20.13;;;3.40;;
30864;SDS011;17574;49.418;11.038;2022-10-17T09:20:20;7.37;;;2.07;;
30864;SDS011;17574;49.418;11.038;2022-10-17T09:25:26;7.67;;;1.80;;
30864;SDS011;17574;49.418;11.038;2022-10-17T09:27:56;5.00;;;1.50;;
30864;SDS011;17574;49.418;11.038;2022-10-17T09:30:38;5.17;;;1.80;;
30864;SDS011;17574;49.418;11.038;2022-10-17T09:33:16;6.60;;;2.00;;
30864;SDS011;17574;49.418;11.038;2022-10-17T09:36:01;6.60;;;1.20;;
30864;SDS011;17574;49.418;11.038;2022-10-17T09:38:46;5.20;;;1.80;;
30864;SDS011;17574;49.418;11.038;2022-10-17T09:41:17;8.80;;;1.90;;
30864;SDS011;17574;49.418;11.038;2022-10-17T09:44:28;5.63;;;2.00;;
30864;SDS011;17574;49.418;11.038;2022-10-17T09:49:33;9.40;;;1.80;;
30864;SDS011;17574;49.418;11.038;2022-10-17T09:52:03;4.50;;;1.20;;
30864;SDS011;17574;49.418;11.038;2022-10-17T09:54:44;8.07;;;1.70;;
30864;SDS011;17574;49.418;11.038;2022-10-17T09:57:19;6.30;;;1.60;;
30864;SDS011;17574;49.418;11.038;2022-10-17T09:59:54;8.57;;;1.67;;
30864;SDS011;17574;49.418;11.038;2022-10-17T10:02:24;5.93;;;2.03;;
30864;SDS011;17574;49.418;11.038;2022-10-17T10:04:57;9.47;;;1.50;;
30864;SDS011;17574;49.418;11.038;2022-10-17T10:07:37;1.40;;;0.80;;
30864;SDS011;17574;49.418;11.038;2022-10-17T10:10:07;5.53;;;1.87;;
30864;SDS011;17574;49.418;11.038;2022-10-17T10:15:52;6.30;;;1.33;;
30864;SDS011;17574;49.418;11.038;2022-10-17T10:18:33;6.87;;;1.77;;
30864;SDS011;17574;49.418;11.038;2022-10-17T10:21:02;4.63;;;1.30;;
30864;SDS011;17574;49.418;11.038;2022-10-17T10:23:40;4.70;;;1.50;;
30864;SDS011;17574;49.418;11.038;2022-10-17T10:28:53;6.77;;;1.30;;
30864;SDS011;17574;49.418;11.038;2022-10-17T10:31:36;7.60;;;1.97;;
30864;SDS011;17574;49.418;11.038;2022-10-17T10:34:27;11.33;;;1.53;;
30864;SDS011;17574;49.418;11.038;2022-10-17T10:36:58;4.33;;;1.20;;
30864;SDS011;17574;49.418;11.038;2022-10-17T10:42:27;13.60;;;1.67;;
30864;SDS011;17574;49.418;11.038;2022-10-17T10:44:56;7.70;;;1.30;;
30864;SDS011;17574;49.418;11.038;2022-10-17T10:48:02;6.10;;;1.40;;
30864;SDS011;17574;49.418;11.038;2022-10-17T10:50:38;8.23;;;1.37;;
30864;SDS011;17574;49.418;11.038;2022-10-17T10:53:13;5.13;;;1.27;;
30864;SDS011;17574;49.418;11.038;2022-10-17T10:55:52;7.10;;;1.87;;
30864;SDS011;17574;49.418;11.038;2022-10-17T11:01:28;6.00;;;1.80;;
30864;SDS011;17574;49.418;11.038;2022-10-17T11:18:21;6.90;;;1.80;;
30864;SDS011;17574;49.418;11.038;2022-10-17T11:20:54;8.10;;;1.77;;
30864;SDS011;17574;49.418;11.038;2022-10-17T11:23:37;9.87;;;1.50;;
30864;SDS011;17574;49.418;11.038;2022-10-17T11:26:10;10.60;;;2.03;;
30864;SDS011;17574;49.418;11.038;2022-10-17T11:28:42;6.57;;;1.57;;
30864;SDS011;17574;49.418;11.038;2022-10-17T11:31:11;7.23;;;1.73;;
30864;SDS011;17574;49.418;11.038;2022-10-17T11:33:50;9.67;;;1.73;;
30864;SDS011;17574;49.418;11.038;2022-10-17T11:36:18;8.13;;;2.00;;
30864;SDS011;17574;49.418;11.038;2022-10-17T11:38:57;5.97;;;1.80;;
30864;SDS011;17574;49.418;11.038;2022-10-17T11:41:30;9.10;;;1.57;;
30864;SDS011;17574;49.418;11.038;2022-10-17T11:44:17;10.50;;;1.67;;
30864;SDS011;17574;49.418;11.038;2022-10-17T11:46:57;4.90;;;1.07;;
30864;SDS011;17574;49.418;11.038;2022-10-17T11:49:31;7.05;;;1.50;;
30864;SDS011;17574;49.418;11.038;2022-10-17T11:55:09;3.83;;;1.10;;
30864;SDS011;17574;49.418;11.038;2022-10-17T12:03:32;6.00;;;1.60;;
30864;SDS011;17574;49.418;11.038;2022-10-17T12:06:22;7.20;;;1.47;;
30864;SDS011;17574;49.418;11.038;2022-10-17T12:17:30;8.57;;;1.47;;
30864;SDS011;17574;49.418;11.038;2022-10-17T12:22:56;29.13;;;2.00;;
30864;SDS011;17574;49.418;11.038;2022-10-17T12:25:25;8.07;;;1.23;;
30864;SDS011;17574;49.418;11.038;2022-10-17T12:28:02;4.30;;;1.23;;
30864;SDS011;17574;49.418;11.038;2022-10-17T12:30:34;3.63;;;1.40;;
30864;SDS011;17574;49.418;11.038;2022-10-17T12:33:05;4.87;;;1.10;;
30864;SDS011;17574;49.418;11.038;2022-10-17T12:51:18;3.95;;;1.40;;
30864;SDS011;17574;49.418;11.038;2022-10-17T12:54:10;4.50;;;1.10;;
30864;SDS011;17574;49.418;11.038;2022-10-17T13:11:51;4.80;;;1.90;;
30864;SDS011;17574;49.418;11.038;2022-10-17T13:14:20;4.80;;;1.30;;
30864;SDS011;17574;49.418;11.038;2022-10-17T13:16:57;5.07;;;1.60;;
30864;SDS011;17574;49.418;11.038;2022-10-17T13:19:30;5.40;;;1.33;;
30864;SDS011;17574;49.418;11.038;2022-10-17T13:22:10;5.07;;;1.37;;
30864;SDS011;17574;49.418;11.038;2022-10-17T13:24:42;7.53;;;1.50;;
30864;SDS011;17574;49.418;11.038;2022-10-17T13:27:25;8.93;;;1.30;;
30864;SDS011;17574;49.418;11.038;2022-10-17T13:29:57;7.93;;;1.27;;
30864;SDS011;17574;49.418;11.038;2022-10-17T13:32:34;5.03;;;1.27;;
30864;SDS011;17574;49.418;11.038;2022-10-17T13:35:13;13.93;;;2.10;;
30864;SDS011;17574;49.418;11.038;2022-10-17T13:37:43;9.90;;;1.53;;
30864;SDS011;17574;49.418;11.038;2022-10-17T13:40:19;17.10;;;2.03;;
30864;SDS011;17574;49.418;11.038;2022-10-17T13:43:16;5.20;;;1.60;;
30864;SDS011;17574;49.418;11.038;2022-10-17T13:45:53;14.10;;;1.90;;
30864;SDS011;17574;49.418;11.038;2022-10-17T13:48:35;11.83;;;2.00;;
30864;SDS011;17574;49.418;11.038;2022-10-17T13:51:03;8.20;;;1.90;;
30864;SDS011;17574;49.418;11.038;2022-10-17T13:53:37;7.60;;;1.50;;
30864;SDS011;17574;49.418;11.038;2022-10-17T13:58:56;6.27;;;2.07;;
30864;SDS011;17574;49.418;11.038;2022-10-17T14:01:28;6.20;;;1.60;;
30864;SDS011;17574;49.418;11.038;2022-10-17T14:03:56;5.97;;;1.63;;
30864;SDS011;17574;49.418;11.038;2022-10-17T14:06:41;6.30;;;2.00;;
30864;SDS011;17574;49.418;11.038;2022-10-17T14:09:26;7.57;;;1.73;;
30864;SDS011;17574;49.418;11.038;2022-10-17T14:12:02;8.30;;;1.90;;
30864;SDS011;17574;49.418;11.038;2022-10-17T14:14:36;9.57;;;1.80;;
30864;SDS011;17574;49.418;11.038;2022-10-17T14:17:25;11.60;;;2.40;;
30864;SDS011;17574;49.418;11.038;2022-10-17T14:20:00;7.00;;;2.00;;
30864;SDS011;17574;49.418;11.038;2022-10-17T14:22:49;11.50;;;2.07;;
30864;SDS011;17574;49.418;11.038;2022-10-17T14:25:37;6.50;;;1.90;;
30864;SDS011;17574;49.418;11.038;2022-10-17T14:28:12;5.50;;;1.90;;
30864;SDS011;17574;49.418;11.038;2022-10-17T14:30:47;15.83;;;2.27;;
30864;SDS011;17574;49.418;11.038;2022-10-17T14:33:23;6.57;;;2.27;;
30864;SDS011;17574;49.418;11.038;2022-10-17T14:35:57;6.03;;;2.20;;
30864;SDS011;17574;49.418;11.038;2022-10-17T14:38:26;13.93;;;2.63;;
30864;SDS011;17574;49.418;11.038;2022-10-17T14:44:13;7.40;;;2.67;;
30864;SDS011;17574;49.418;11.038;2022-10-17T14:46:47;7.90;;;2.13;;
30864;SDS011;17574;49.418;11.038;2022-10-17T14:49:24;10.70;;;2.63;;
30864;SDS011;17574;49.418;11.038;2022-10-17T14:54:44;7.23;;;2.77;;
30864;SDS011;17574;49.418;11.038;2022-10-17T14:57:23;5.20;;;1.60;;
30864;SDS011;17574;49.418;11.038;2022-10-17T14:59:59;6.43;;;1.97;;
30864;SDS011;17574;49.418;11.038;2022-10-17T15:02:28;9.27;;;2.70;;
30864;SDS011;17574;49.418;11.038;2022-10-17T15:04:55;8.80;;;2.50;;
30864;SDS011;17574;49.418;11.038;2022-10-17T15:07:22;8.87;;;2.07;;
30864;SDS011;17574;49.418;11.038;2022-10-17T15:09:50;8.10;;;2.70;;
30864;SDS011;17574;49.418;11.038;2022-10-17T15:12:18;8.70;;;2.10;;
30864;SDS011;17574;49.418;11.038;2022-10-17T15:14:47;9.20;;;2.00;;
30864;SDS011;17574;49.418;11.038;2022-10-17T15:17:18;7.83;;;2.17;;
30864;SDS011;17574;49.418;11.038;2022-10-17T15:19:56;7.13;;;2.60;;
30864;SDS011;17574;49.418;11.038;2022-10-17T15:22:23;8.60;;;3.37;;
30864;SDS011;17574;49.418;11.038;2022-10-17T15:24:50;10.47;;;3.70;;
30864;SDS011;17574;49.418;11.038;2022-10-17T15:27:18;8.23;;;2.73;;
30864;SDS011;17574;49.418;11.038;2022-10-17T15:29:47;8.43;;;2.03;;
30864;SDS011;17574;49.418;11.038;2022-10-17T15:32:14;8.73;;;3.20;;
30864;SDS011;17574;49.418;11.038;2022-10-17T15:34:41;9.33;;;2.60;;
30864;SDS011;17574;49.418;11.038;2022-10-17T15:37:41;6.83;;;2.47;;
30864;SDS011;17574;49.418;11.038;2022-10-17T15:40:00;10.93;;;3.60;;
30864;SDS011;17574;49.418;11.038;2022-10-17T15:42:28;17.63;;;3.13;;
30864;SDS011;17574;49.418;11.038;2022-10-17T15:44:55;9.07;;;3.47;;
30864;SDS011;17574;49.418;11.038;2022-10-17T15:47:23;9.37;;;2.90;;
30864;SDS011;17574;49.418;11.038;2022-10-17T15:49:50;9.57;;;3.00;;
30864;SDS011;17574;49.418;11.038;2022-10-17T15:52:18;9.53;;;2.70;;
30864;SDS011;17574;49.418;11.038;2022-10-17T15:54:44;8.73;;;3.03;;
30864;SDS011;17574;49.418;11.038;2022-10-17T15:57:15;11.17;;;2.90;;
30864;SDS011;17574;49.418;11.038;2022-10-17T15:59:54;6.40;;;2.63;;
30864;SDS011;17574;49.418;11.038;2022-10-17T16:02:24;6.83;;;2.30;;
30864;SDS011;17574;49.418;11.038;2022-10-17T16:04:51;10.00;;;2.53;;
30864;SDS011;17574;49.418;11.038;2022-10-17T16:07:18;10.90;;;3.07;;
30864;SDS011;17574;49.418;11.038;2022-10-17T16:09:46;11.17;;;3.17;;
30864;SDS011;17574;49.418;11.038;2022-10-17T16:12:31;13.43;;;3.33;;
30864;SDS011;17574;49.418;11.038;2022-10-17T16:15:02;11.00;;;2.97;;
30864;SDS011;17574;49.418;11.038;2022-10-17T16:17:29;11.10;;;3.33;;
30864;SDS011;17574;49.418;11.038;2022-10-17T16:19:56;15.17;;;4.10;;
30864;SDS011;17574;49.418;11.038;2022-10-17T16:22:27;11.30;;;3.93;;
30864;SDS011;17574;49.418;11.038;2022-10-17T16:25:02;13.57;;;5.00;;
30864;SDS011;17574;49.418;11.038;2022-10-17T16:27:35;10.20;;;4.33;;
30864;SDS011;17574;49.418;11.038;2022-10-17T16:30:03;22.57;;;4.63;;
30864;SDS011;17574;49.418;11.038;2022-10-17T16:32:31;14.27;;;4.70;;
30864;SDS011;17574;49.418;11.038;2022-10-17T16:34:58;14.10;;;4.77;;
30864;SDS011;17574;49.418;11.038;2022-10-17T16:37:25;10.37;;;4.50;;
30864;SDS011;17574;49.418;11.038;2022-10-17T16:39:52;19.63;;;5.40;;
30864;SDS011;17574;49.418;11.038;2022-10-17T16:42:19;21.93;;;5.60;;
30864;SDS011;17574;49.418;11.038;2022-10-17T16:44:46;23.10;;;6.40;;
30864;SDS011;17574;49.418;11.038;2022-10-17T16:47:14;13.47;;;6.80;;
30864;SDS011;17574;49.418;11.038;2022-10-17T16:49:41;15.83;;;6.17;;
30864;SDS011;17574;49.418;11.038;2022-10-17T16:52:10;16.07;;;5.63;;
30864;SDS011;17574;49.418;11.038;2022-10-17T16:54:37;13.17;;;3.70;;
30864;SDS011;17574;49.418;11.038;2022-10-17T16:57:04;13.60;;;4.40;;
30864;SDS011;17574;49.418;11.038;2022-10-17T16:59:31;10.27;;;4.23;;
30864;SDS011;17574;49.418;11.038;2022-10-17T17:01:58;11.07;;;4.60;;
30864;SDS011;17574;49.418;11.038;2022-10-17T17:04:25;9.27;;;4.20;;
30864;SDS011;17574;49.418;11.038;2022-10-17T17:06:51;10.93;;;5.17;;
30864;SDS011;17574;49.418;11.038;2022-10-17T17:09:18;18.57;;;5.10;;
30864;SDS011;17574;49.418;11.038;2022-10-17T17:11:45;15.93;;;5.10;;
30864;SDS011;17574;49.418;11.038;2022-10-17T17:14:12;10.90;;;5.50;;
30864;SDS011;17574;49.418;11.038;2022-10-17T17:16:38;12.10;;;5.47;;
30864;SDS011;17574;49.418;11.038;2022-10-17T17:19:06;11.63;;;5.13;;
30864;SDS011;17574;49.418;11.038;2022-10-17T17:21:35;9.70;;;5.00;;
30864;SDS011;17574;49.418;11.038;2022-10-17T17:24:03;19.20;;;5.63;;
30864;SDS011;17574;49.418;11.038;2022-10-17T17:26:31;10.23;;;5.20;;
30864;SDS011;17574;49.418;11.038;2022-10-17T17:29:01;14.07;;;4.77;;
30864;SDS011;17574;49.418;11.038;2022-10-17T17:31:30;14.73;;;5.30;;
30864;SDS011;17574;49.418;11.038;2022-10-17T17:33:58;13.00;;;4.80;;
30864;SDS011;17574;49.418;11.038;2022-10-17T17:36:29;17.77;;;5.20;;
30864;SDS011;17574;49.418;11.038;2022-10-17T17:38:57;12.10;;;5.20;;
30864;SDS011;17574;49.418;11.038;2022-10-17T17:41:25;12.03;;;5.20;;
30864;SDS011;17574;49.418;11.038;2022-10-17T17:43:53;17.03;;;6.37;;
30864;SDS011;17574;49.418;11.038;2022-10-17T17:46:21;15.60;;;5.27;;
30864;SDS011;17574;49.418;11.038;2022-10-17T17:48:49;15.83;;;6.47;;
30864;SDS011;17574;49.418;11.038;2022-10-17T17:51:18;18.43;;;4.77;;
30864;SDS011;17574;49.418;11.038;2022-10-17T17:53:54;11.03;;;5.27;;
30864;SDS011;17574;49.418;11.038;2022-10-17T17:56:25;10.33;;;5.13;;
30864;SDS011;17574;49.418;11.038;2022-10-17T17:58:57;11.87;;;4.93;;
30864;SDS011;17574;49.418;11.038;2022-10-17T18:01:26;10.00;;;5.07;;
30864;SDS011;17574;49.418;11.038;2022-10-17T18:03:55;8.97;;;4.20;;
30864;SDS011;17574;49.418;11.038;2022-10-17T18:06:24;21.00;;;6.23;;
30864;SDS011;17574;49.418;11.038;2022-10-17T18:08:53;19.10;;;4.97;;
30864;SDS011;17574;49.418;11.038;2022-10-17T18:11:21;15.70;;;4.90;;
30864;SDS011;17574;49.418;11.038;2022-10-17T18:14:01;44.20;;;6.30;;
30864;SDS011;17574;49.418;11.038;2022-10-17T18:16:30;18.73;;;5.20;;
30864;SDS011;17574;49.418;11.038;2022-10-17T18:18:58;21.03;;;5.60;;
30864;SDS011;17574;49.418;11.038;2022-10-17T18:21:31;16.63;;;5.77;;
30864;SDS011;17574;49.418;11.038;2022-10-17T18:23:58;17.90;;;6.63;;
30864;SDS011;17574;49.418;11.038;2022-10-17T18:26:25;18.10;;;6.90;;
30864;SDS011;17574;49.418;11.038;2022-10-17T18:28:52;18.80;;;6.60;;
30864;SDS011;17574;49.418;11.038;2022-10-17T18:31:20;11.50;;;5.20;;
30864;SDS011;17574;49.418;11.038;2022-10-17T18:34:00;16.93;;;6.87;;
30864;SDS011;17574;49.418;11.038;2022-10-17T18:36:28;18.90;;;7.17;;
30864;SDS011;17574;49.418;11.038;2022-10-17T18:38:56;27.90;;;8.93;;
30864;SDS011;17574;49.418;11.038;2022-10-17T18:41:25;14.93;;;7.90;;
30864;SDS011;17574;49.418;11.038;2022-10-17T18:43:53;18.33;;;7.53;;
30864;SDS011;17574;49.418;11.038;2022-10-17T18:46:27;17.80;;;8.30;;
30864;SDS011;17574;49.418;11.038;2022-10-17T18:49:02;20.03;;;8.03;;
30864;SDS011;17574;49.418;11.038;2022-10-17T18:51:29;22.80;;;8.60;;
30864;SDS011;17574;49.418;11.038;2022-10-17T18:53:56;20.70;;;8.43;;
30864;SDS011;17574;49.418;11.038;2022-10-17T18:56:24;18.70;;;8.07;;
30864;SDS011;17574;49.418;11.038;2022-10-17T18:58:50;14.03;;;7.53;;
30864;SDS011;17574;49.418;11.038;2022-10-17T19:01:18;17.83;;;7.97;;
30864;SDS011;17574;49.418;11.038;2022-10-17T19:03:47;17.00;;;7.17;;
30864;SDS011;17574;49.418;11.038;2022-10-17T19:06:17;18.27;;;7.13;;
30864;SDS011;17574;49.418;11.038;2022-10-17T19:08:46;15.10;;;6.80;;
30864;SDS011;17574;49.418;11.038;2022-10-17T19:11:18;13.53;;;7.30;;
30864;SDS011;17574;49.418;11.038;2022-10-17T19:13:46;30.10;;;8.10;;
30864;SDS011;17574;49.418;11.038;2022-10-17T19:16:24;18.30;;;7.83;;
30864;SDS011;17574;49.418;11.038;2022-10-17T19:18:59;25.37;;;7.50;;
30864;SDS011;17574;49.418;11.038;2022-10-17T19:21:28;19.77;;;8.50;;
30864;SDS011;17574;49.418;11.038;2022-10-17T19:23:58;14.90;;;7.90;;
30864;SDS011;17574;49.418;11.038;2022-10-17T19:26:28;18.90;;;7.93;;
30864;SDS011;17574;49.418;11.038;2022-10-17T19:28:57;17.40;;;8.30;;
30864;SDS011;17574;49.418;11.038;2022-10-17T19:31:26;15.17;;;7.33;;
30864;SDS011;17574;49.418;11.038;2022-10-17T19:33:55;16.53;;;7.87;;
30864;SDS011;17574;49.418;11.038;2022-10-17T19:36:24;24.03;;;8.53;;
30864;SDS011;17574;49.418;11.038;2022-10-17T19:38:58;24.50;;;7.93;;
30864;SDS011;17574;49.418;11.038;2022-10-17T19:41:29;18.10;;;8.53;;
30864;SDS011;17574;49.418;11.038;2022-10-17T19:43:58;20.87;;;7.57;;
30864;SDS011;17574;49.418;11.038;2022-10-17T19:46:25;14.80;;;7.20;;
30864;SDS011;17574;49.418;11.038;2022-10-17T19:48:53;17.10;;;7.90;;
30864;SDS011;17574;49.418;11.038;2022-10-17T19:51:21;16.30;;;7.67;;
30864;SDS011;17574;49.418;11.038;2022-10-17T19:53:50;19.63;;;7.70;;
30864;SDS011;17574;49.418;11.038;2022-10-17T19:56:18;15.90;;;6.90;;
30864;SDS011;17574;49.418;11.038;2022-10-17T19:58:47;32.37;;;8.57;;
30864;SDS011;17574;49.418;11.038;2022-10-17T20:01:16;18.80;;;7.77;;
30864;SDS011;17574;49.418;11.038;2022-10-17T20:03:44;32.37;;;8.67;;
30864;SDS011;17574;49.418;11.038;2022-10-17T20:06:12;17.63;;;7.60;;
30864;SDS011;17574;49.418;11.038;2022-10-17T20:08:39;20.67;;;8.23;;
30864;SDS011;17574;49.418;11.038;2022-10-17T20:11:13;16.80;;;7.80;;
30864;SDS011;17574;49.418;11.038;2022-10-17T20:13:45;19.67;;;7.77;;
30864;SDS011;17574;49.418;11.038;2022-10-17T20:16:14;13.47;;;6.40;;
30864;SDS011;17574;49.418;11.038;2022-10-17T20:18:42;19.40;;;6.87;;
30864;SDS011;17574;49.418;11.038;2022-10-17T20:21:10;16.10;;;7.20;;
30864;SDS011;17574;49.418;11.038;2022-10-17T20:23:39;15.53;;;7.23;;
30864;SDS011;17574;49.418;11.038;2022-10-17T20:26:08;17.93;;;8.17;;
30864;SDS011;17574;49.418;11.038;2022-10-17T20:28:58;19.27;;;9.60;;
30864;SDS011;17574;49.418;11.038;2022-10-17T20:31:26;20.70;;;8.63;;
30864;SDS011;17574;49.418;11.038;2022-10-17T20:33:53;22.63;;;8.77;;
30864;SDS011;17574;49.418;11.038;2022-10-17T20:36:21;18.90;;;8.10;;
30864;SDS011;17574;49.418;11.038;2022-10-17T20:38:52;19.20;;;8.27;;
30864;SDS011;17574;49.418;11.038;2022-10-17T20:41:20;13.33;;;6.50;;
30864;SDS011;17574;49.418;11.038;2022-10-17T20:43:48;14.37;;;6.63;;
30864;SDS011;17574;49.418;11.038;2022-10-17T20:46:16;17.53;;;8.63;;
30864;SDS011;17574;49.418;11.038;2022-10-17T20:49:00;13.30;;;6.33;;
30864;SDS011;17574;49.418;11.038;2022-10-17T20:51:28;17.93;;;7.03;;
30864;SDS011;17574;49.418;11.038;2022-10-17T20:53:55;32.33;;;8.00;;
30864;SDS011;17574;49.418;11.038;2022-10-17T20:56:27;15.53;;;7.70;;
30864;SDS011;17574;49.418;11.038;2022-10-17T20:58:59;18.23;;;8.00;;
30864;SDS011;17574;49.418;11.038;2022-10-17T21:01:27;18.27;;;7.97;;
30864;SDS011;17574;49.418;11.038;2022-10-17T21:03:55;21.73;;;7.30;;
30864;SDS011;17574;49.418;11.038;2022-10-17T21:06:35;28.43;;;8.33;;
30864;SDS011;17574;49.418;11.038;2022-10-17T21:09:03;16.33;;;7.37;;
30864;SDS011;17574;49.418;11.038;2022-10-17T21:11:31;15.10;;;7.33;;
30864;SDS011;17574;49.418;11.038;2022-10-17T21:13:58;30.47;;;8.17;;
30864;SDS011;17574;49.418;11.038;2022-10-17T21:16:27;15.13;;;7.13;;
30864;SDS011;17574;49.418;11.038;2022-10-17T21:18:55;11.30;;;6.03;;
30864;SDS011;17574;49.418;11.038;2022-10-17T21:21:23;15.03;;;6.87;;
30864;SDS011;17574;49.418;11.038;2022-10-17T21:23:53;20.13;;;7.20;;
30864;SDS011;17574;49.418;11.038;2022-10-17T21:26:22;18.73;;;7.30;;
30864;SDS011;17574;49.418;11.038;2022-10-17T21:28:49;15.60;;;7.00;;
30864;SDS011;17574;49.418;11.038;2022-10-17T21:31:17;18.50;;;7.97;;
30864;SDS011;17574;49.418;11.038;2022-10-17T21:33:49;12.37;;;7.63;;
30864;SDS011;17574;49.418;11.038;2022-10-17T21:36:20;19.50;;;6.70;;
30864;SDS011;17574;49.418;11.038;2022-10-17T21:38:48;14.27;;;6.73;;
30864;SDS011;17574;49.418;11.038;2022-10-17T21:41:31;11.90;;;6.20;;
30864;SDS011;17574;49.418;11.038;2022-10-17T21:44:20;14.57;;;7.70;;
30864;SDS011;17574;49.418;11.038;2022-10-17T21:46:46;16.67;;;6.77;;
30864;SDS011;17574;49.418;11.038;2022-10-17T21:49:15;12.77;;;6.30;;
30864;SDS011;17574;49.418;11.038;2022-10-17T21:51:44;15.90;;;6.90;;
30864;SDS011;17574;49.418;11.038;2022-10-17T21:54:13;13.53;;;6.37;;
30864;SDS011;17574;49.418;11.038;2022-10-17T21:56:40;14.60;;;7.40;;
30864;SDS011;17574;49.418;11.038;2022-10-17T21:59:07;14.13;;;7.43;;
30864;SDS011;17574;49.418;11.038;2022-10-17T22:01:35;11.73;;;6.40;;
30864;SDS011;17574;49.418;11.038;2022-10-17T22:04:05;17.17;;;6.70;;
30864;SDS011;17574;49.418;11.038;2022-10-17T22:06:34;14.67;;;7.60;;
30864;SDS011;17574;49.418;11.038;2022-10-17T22:09:07;13.47;;;6.60;;
30864;SDS011;17574;49.418;11.038;2022-10-17T22:11:37;15.30;;;6.50;;
30864;SDS011;17574;49.418;11.038;2022-10-17T22:14:05;13.67;;;6.67;;
30864;SDS011;17574;49.418;11.038;2022-10-17T22:16:36;17.37;;;6.53;;
30864;SDS011;17574;49.418;11.038;2022-10-17T22:19:04;20.10;;;6.53;;
30864;SDS011;17574;49.418;11.038;2022-10-17T22:21:32;15.20;;;7.00;;
30864;SDS011;17574;49.418;11.038;2022-10-17T22:24:01;20.60;;;6.57;;
30864;SDS011;17574;49.418;11.038;2022-10-17T22:26:31;17.17;;;6.90;;
30864;SDS011;17574;49.418;11.038;2022-10-17T22:28:59;17.40;;;6.73;;
30864;SDS011;17574;49.418;11.038;2022-10-17T22:31:26;22.47;;;7.10;;
30864;SDS011;17574;49.418;11.038;2022-10-17T22:33:52;13.23;;;6.50;;
30864;SDS011;17574;49.418;11.038;2022-10-17T22:36:19;13.63;;;6.60;;
30864;SDS011;17574;49.418;11.038;2022-10-17T22:38:47;14.67;;;7.20;;
30864;SDS011;17574;49.418;11.038;2022-10-17T22:41:13;17.60;;;7.63;;
30864;SDS011;17574;49.418;11.038;2022-10-17T22:43:40;11.73;;;6.27;;
30864;SDS011;17574;49.418;11.038;2022-10-17T22:46:07;13.03;;;7.13;;
30864;SDS011;17574;49.418;11.038;2022-10-17T22:48:35;16.10;;;6.50;;
30864;SDS011;17574;49.418;11.038;2022-10-17T22:51:02;18.70;;;5.93;;
30864;SDS011;17574;49.418;11.038;2022-10-17T22:53:29;15.40;;;6.60;;
30864;SDS011;17574;49.418;11.038;2022-10-17T22:55:56;17.10;;;6.67;;
30864;SDS011;17574;49.418;11.038;2022-10-17T22:58:25;15.33;;;5.97;;
30864;SDS011;17574;49.418;11.038;2022-10-17T23:00:53;14.13;;;6.63;;
30864;SDS011;17574;49.418;11.038;2022-10-17T23:03:21;14.40;;;7.00;;
30864;SDS011;17574;49.418;11.038;2022-10-17T23:05:49;13.40;;;6.00;;
30864;SDS011;17574;49.418;11.038;2022-10-17T23:08:16;15.70;;;6.10;;
30864;SDS011;17574;49.418;11.038;2022-10-17T23:10:46;17.70;;;6.10;;
30864;SDS011;17574;49.418;11.038;2022-10-17T23:13:13;18.57;;;5.67;;
30864;SDS011;17574;49.418;11.038;2022-10-17T23:15:40;18.57;;;6.00;;
30864;SDS011;17574;49.418;11.038;2022-10-17T23:18:08;17.23;;;6.07;;
30864;SDS011;17574;49.418;11.038;2022-10-17T23:20:35;12.13;;;5.97;;
30864;SDS011;17574;49.418;11.038;2022-10-17T23:23:03;16.63;;;7.00;;
30864;SDS011;17574;49.418;11.038;2022-10-17T23:25:31;15.50;;;5.73;;
30864;SDS011;17574;49.418;11.038;2022-10-17T23:27:59;21.23;;;6.63;;
30864;SDS011;17574;49.418;11.038;2022-10-17T23:30:26;14.23;;;6.27;;
30864;SDS011;17574;49.418;11.038;2022-10-17T23:32:52;17.20;;;6.60;;
30864;SDS011;17574;49.418;11.038;2022-10-17T23:35:19;13.30;;;6.87;;
30864;SDS011;17574;49.418;11.038;2022-10-17T23:37:46;18.30;;;6.73;;
30864;SDS011;17574;49.418;11.038;2022-10-17T23:40:13;23.37;;;7.07;;
30864;SDS011;17574;49.418;11.038;2022-10-17T23:42:39;12.10;;;6.13;;
30864;SDS011;17574;49.418;11.038;2022-10-17T23:45:06;13.73;;;6.90;;
30864;SDS011;17574;49.418;11.038;2022-10-17T23:47:33;16.27;;;5.90;;
30864;SDS011;17574;49.418;11.038;2022-10-17T23:50:00;12.63;;;5.67;;
30864;SDS011;17574;49.418;11.038;2022-10-17T23:52:27;15.37;;;6.40;;
30864;SDS011;17574;49.418;11.038;2022-10-17T23:54:53;13.70;;;6.83;;